createdAt,value
2022-11-24T00:00:21.824Z,5.800
2022-11-24T00:01:23.646Z,5.800
2022-11-24T00:02:24.940Z,5.800
2022-11-24T00:03:34.143Z,5.800
2022-11-24T00:04:31.968Z,5.800
2022-11-24T00:05:28.688Z,5.800
2022-11-24T00:06:37.146Z,5.800
2022-11-24T00:07:36.411Z,5.800
2022-11-24T00:08:28.813Z,5.800
2022-11-24T00:09:24.395Z,5.800
2022-11-24T00:10:58.263Z,5.800
2022-11-24T00:11:45.033Z,5.800
2022-11-24T00:12:32.371Z,5.800
2022-11-24T00:13:30.955Z,5.800
2022-11-24T00:14:29.846Z,5.800
2022-11-24T00:15:31.841Z,5.800
2022-11-24T00:16:22.506Z,5.700
2022-11-24T00:17:34.820Z,5.700
2022-11-24T00:18:26.635Z,5.700
2022-11-24T00:19:21.991Z,5.700
2022-11-24T00:20:34.172Z,5.700
2022-11-24T00:21:29.506Z,5.700
2022-11-24T00:22:27.867Z,5.700
2022-11-24T00:24:30.144Z,5.600
2022-11-24T00:25:31.187Z,5.600
2022-11-24T00:26:24.756Z,5.600
2022-11-24T00:28:34.222Z,5.600
2022-11-24T00:29:24.979Z,5.600
2022-11-24T00:30:23.613Z,5.500
2022-11-24T00:32:27.080Z,5.500
2022-11-24T00:33:26.592Z,5.500
2022-11-24T00:34:33.400Z,5.500
2022-11-24T00:35:35.728Z,5.500
2022-11-24T00:36:30.170Z,5.500
2022-11-24T00:37:23.031Z,5.500
2022-11-24T00:38:19.095Z,5.500
2022-11-24T00:39:28.953Z,5.500
2022-11-24T00:40:22.494Z,5.400
2022-11-24T00:41:34.906Z,5.400
2022-11-24T00:42:29.662Z,5.400
2022-11-24T00:43:27.778Z,5.400
2022-11-24T00:44:24.852Z,5.400
2022-11-24T00:45:26.989Z,5.300
2022-11-24T00:46:29.004Z,5.300
2022-11-24T00:47:25.845Z,5.300
2022-11-24T00:48:49.948Z,5.300
2022-11-24T00:49:29.544Z,5.300
2022-11-24T00:50:33.832Z,5.300
2022-11-24T00:51:21.912Z,5.200
2022-11-24T00:52:20.218Z,5.200
2022-11-24T00:53:26.211Z,5.200
2022-11-24T00:54:21.700Z,5.200
2022-11-24T00:55:24.660Z,5.200
2022-11-24T00:56:31.548Z,5.200
2022-11-24T00:57:24.632Z,5.100
2022-11-24T00:58:22.008Z,5.100
2022-11-24T00:59:26.641Z,5.100
2022-11-24T01:00:25.619Z,5.100
2022-11-24T01:01:23.509Z,5.100
2022-11-24T01:02:28.813Z,5.100
2022-11-24T01:03:33.192Z,5.100
2022-11-24T01:04:23.758Z,5.100
2022-11-24T01:05:21.792Z,5.100
2022-11-24T01:06:19.726Z,5.000
2022-11-24T01:07:24.231Z,5.000
2022-11-24T01:08:22.987Z,5.000
2022-11-24T01:10:31.046Z,5.000
2022-11-24T01:11:25.937Z,5.000
2022-11-24T01:12:23.153Z,4.900
2022-11-24T01:13:28.526Z,4.900
2022-11-24T01:14:28.042Z,4.900
2022-11-24T01:15:22.010Z,4.900
2022-11-24T01:16:19.852Z,4.900
2022-11-24T01:17:42.827Z,4.900
2022-11-24T01:18:25.718Z,4.900
2022-11-24T01:19:19.973Z,4.900
2022-11-24T01:20:27.214Z,4.800
2022-11-24T01:21:27.743Z,4.800
2022-11-24T01:22:22.087Z,4.800
2022-11-24T01:23:26.354Z,4.800
2022-11-24T01:24:20.616Z,4.800
2022-11-24T01:25:24.007Z,4.800
2022-11-24T01:26:22.370Z,4.800
2022-11-24T01:27:30.953Z,4.800
2022-11-24T01:28:30.806Z,4.800
2022-11-24T01:29:27.054Z,4.800
2022-11-24T01:30:27.704Z,4.700
2022-11-24T01:31:21.406Z,4.800
2022-11-24T01:32:29.954Z,4.800
2022-11-24T01:33:23.157Z,4.800
2022-11-24T01:34:31.747Z,4.750
2022-11-24T01:35:26.734Z,4.800
2022-11-24T01:36:25.759Z,4.800
2022-11-24T01:37:23.344Z,4.800
2022-11-24T01:39:26.486Z,4.800
2022-11-24T01:40:22.963Z,4.700
2022-11-24T01:41:38.041Z,4.700
2022-11-24T01:42:21.798Z,4.700
2022-11-24T01:43:23.725Z,4.700
2022-11-24T01:44:28.490Z,4.800
2022-11-24T01:45:20.149Z,4.800
2022-11-24T01:46:21.664Z,4.800
2022-11-24T01:48:29.757Z,4.800
2022-11-24T01:49:28.734Z,4.800
2022-11-24T01:50:24.158Z,4.800
2022-11-24T01:51:31.142Z,4.800
2022-11-24T01:52:29.712Z,4.800
2022-11-24T01:53:19.515Z,4.800
2022-11-24T01:54:22.764Z,4.800
2022-11-24T01:55:31.500Z,4.800
2022-11-24T01:56:28.468Z,4.800
2022-11-24T01:57:23.208Z,4.800
2022-11-24T01:58:49.471Z,4.800
2022-11-24T01:59:32.053Z,4.800
2022-11-24T02:00:53.681Z,4.800
2022-11-24T02:01:30.989Z,4.800
2022-11-24T02:02:30.718Z,4.800
2022-11-24T02:43:33.557Z,4.700
2022-11-24T02:44:40.196Z,4.700
2022-11-24T02:45:33.307Z,4.700
2022-11-24T02:46:36.375Z,4.700
2022-11-24T02:47:22.761Z,4.700
2022-11-24T02:48:31.092Z,4.700
2022-11-24T03:22:40.713Z,4.500
2022-11-24T03:23:26.961Z,4.500
2022-11-24T03:24:39.757Z,4.500
2022-11-24T03:25:27.463Z,4.500
2022-11-24T03:27:27.207Z,4.600
2022-11-24T03:28:40.357Z,4.500
2022-11-24T03:30:16.718Z,4.500
2022-11-24T03:30:28.900Z,4.500
2022-11-24T03:31:24.023Z,4.400
2022-11-24T03:32:20.127Z,4.400
2022-11-24T03:33:28.489Z,4.400
2022-11-24T03:34:24.792Z,4.400
2022-11-24T03:35:26.113Z,4.400
2022-11-24T03:36:34.542Z,4.400
2022-11-24T03:37:34.471Z,4.400
2022-11-24T03:38:24.239Z,4.300
2022-11-24T03:39:22.963Z,4.300
2022-11-24T03:40:24.969Z,4.300
2022-11-24T03:41:31.217Z,4.300
2022-11-24T03:42:22.020Z,4.300
2022-11-24T03:43:39.085Z,4.250
2022-11-24T03:44:23.272Z,4.200
2022-11-24T03:45:44.910Z,4.200
2022-11-24T03:46:23.346Z,4.200
2022-11-24T03:47:28.081Z,4.200
2022-11-24T03:48:22.460Z,4.200
2022-11-24T03:49:23.576Z,4.200
2022-11-24T03:50:30.803Z,4.200
2022-11-24T03:51:29.291Z,4.200
2022-11-24T03:52:24.042Z,4.200
2022-11-24T03:53:20.997Z,4.200
2022-11-24T03:54:32.344Z,4.200
2022-11-24T03:56:24.282Z,4.200
2022-11-24T03:57:32.281Z,4.200
2022-11-24T03:58:29.527Z,4.200
2022-11-24T03:59:28.356Z,4.200
2022-11-24T04:00:25.157Z,4.300
2022-11-24T04:01:29.572Z,4.300
2022-11-24T04:02:30.611Z,4.300
2022-11-24T04:04:37.372Z,4.300
2022-11-24T04:05:28.274Z,4.300
2022-11-24T04:06:27.453Z,4.300
2022-11-24T04:07:23.002Z,4.300
2022-11-24T04:08:30.432Z,4.300
2022-11-24T04:09:28.219Z,4.300
2022-11-24T04:10:27.147Z,4.300
2022-11-24T04:12:26.997Z,4.300
2022-11-24T04:13:24.076Z,4.300
2022-11-24T04:14:22.707Z,4.300
2022-11-24T04:15:31.517Z,4.300
2022-11-24T04:16:23.133Z,4.300
2022-11-24T04:17:21.903Z,4.300
2022-11-24T04:18:25.361Z,4.300
2022-11-24T04:19:28.097Z,4.300
2022-11-24T04:20:25.754Z,4.300
2022-11-24T04:21:26.341Z,4.250
2022-11-24T04:22:29.976Z,4.100
2022-11-24T04:23:30.196Z,4.100
2022-11-24T04:24:26.468Z,4.100
2022-11-24T04:25:26.136Z,4.100
2022-11-24T04:26:20.588Z,4.100
2022-11-24T04:27:26.133Z,4.100
2022-11-24T04:28:26.055Z,4.100
2022-11-24T04:29:37.353Z,4.100
2022-11-24T04:30:27.989Z,4.000
2022-11-24T04:31:26.489Z,4.100
2022-11-24T04:32:21.926Z,4.000
2022-11-24T04:33:26.539Z,4.000
2022-11-24T04:34:27.336Z,4.000
2022-11-24T04:35:21.406Z,4.000
2022-11-24T04:36:30.343Z,4.000
2022-11-24T04:37:30.463Z,4.000
2022-11-24T04:39:19.633Z,4.000
2022-11-24T04:39:28.815Z,4.000
2022-11-24T04:39:29.247Z,4.000
2022-11-24T04:40:22.496Z,4.000
2022-11-24T04:41:28.958Z,4.000
2022-11-24T04:42:26.091Z,4.000
2022-11-24T04:43:37.691Z,4.000
2022-11-24T04:44:25.966Z,4.000
2022-11-24T04:45:22.236Z,3.900
2022-11-24T04:46:27.830Z,3.900
2022-11-24T04:47:28.009Z,3.800
2022-11-24T04:48:25.178Z,3.800
2022-11-24T04:50:22.386Z,3.800
2022-11-24T04:51:26.111Z,3.800
2022-11-24T04:52:24.024Z,3.800
2022-11-24T04:54:22.361Z,3.800
2022-11-24T04:56:22.245Z,3.800
2022-11-24T04:58:25.977Z,3.800
2022-11-24T04:59:22.129Z,3.800
2022-11-24T05:00:33.158Z,3.800
2022-11-24T05:01:19.465Z,3.800
2022-11-24T05:02:23.816Z,3.800
2022-11-24T05:03:20.799Z,3.800
2022-11-24T05:04:19.319Z,3.800
2022-11-24T05:05:26.541Z,3.700
2022-11-24T05:06:21.983Z,3.700
2022-11-24T05:07:32.356Z,3.700
2022-11-24T05:08:19.406Z,3.700
2022-11-24T05:09:41.960Z,3.700
2022-11-24T05:10:19.933Z,3.700
2022-11-24T05:11:25.518Z,3.700
2022-11-24T05:12:27.078Z,3.700
2022-11-24T05:13:21.976Z,3.700
2022-11-24T05:14:26.048Z,3.700
2022-11-24T05:15:29.993Z,3.700
2022-11-24T05:16:29.688Z,3.700
2022-11-24T05:17:22.662Z,3.600
2022-11-24T05:18:30.323Z,3.600
2022-11-24T05:19:21.671Z,3.600
2022-11-24T05:21:32.020Z,3.600
2022-11-24T05:22:30.403Z,3.600
2022-11-24T05:23:25.466Z,3.600
2022-11-24T05:24:22.494Z,3.600
2022-11-24T05:25:24.462Z,3.600
2022-11-24T05:26:28.650Z,3.600
2022-11-24T05:28:32.241Z,3.600
2022-11-24T05:29:29.680Z,3.600
2022-11-24T05:30:24.880Z,3.600
2022-11-24T05:31:21.832Z,3.600
2022-11-24T05:32:20.639Z,3.500
2022-11-24T05:33:33.099Z,3.500
2022-11-24T05:36:28.591Z,3.500
2022-11-24T05:37:24.344Z,3.500
2022-11-24T05:38:20.163Z,3.500
2022-11-24T05:39:28.213Z,3.400
2022-11-24T05:40:28.302Z,3.400
2022-11-24T05:41:22.400Z,3.400
2022-11-24T05:42:24.099Z,3.400
2022-11-24T05:43:31.593Z,3.400
2022-11-24T05:44:24.833Z,3.400
2022-11-24T05:45:25.874Z,3.400
2022-11-24T05:46:32.905Z,3.400
2022-11-24T05:47:35.257Z,3.500
2022-11-24T05:48:22.197Z,3.500
2022-11-24T05:49:23.435Z,3.500
2022-11-24T05:50:27.985Z,3.500
2022-11-24T05:51:27.127Z,3.500
2022-11-24T05:52:24.301Z,3.500
2022-11-24T05:53:21.320Z,3.500
2022-11-24T05:55:22.588Z,3.500
2022-11-24T05:56:27.729Z,3.400
2022-11-24T05:57:22.639Z,3.400
2022-11-24T05:58:23.893Z,3.400
2022-11-24T05:59:22.843Z,3.500
2022-11-24T06:00:30.301Z,3.500
2022-11-24T06:01:30.802Z,3.500
2022-11-24T06:02:28.665Z,3.500
2022-11-24T06:03:33.032Z,3.500
2022-11-24T06:04:25.125Z,3.400
2022-11-24T06:05:25.495Z,3.400
2022-11-24T06:06:24.154Z,3.400
2022-11-24T06:07:32.742Z,3.400
2022-11-24T06:08:31.392Z,3.300
2022-11-24T06:09:24.663Z,3.300
2022-11-24T06:10:24.593Z,3.300
2022-11-24T06:11:30.819Z,3.300
2022-11-24T06:13:24.324Z,3.300
2022-11-24T06:14:32.041Z,3.300
2022-11-24T06:15:26.335Z,3.300
2022-11-24T06:16:22.581Z,3.300
2022-11-24T06:17:24.509Z,3.300
2022-11-24T06:18:30.100Z,3.300
2022-11-24T06:19:28.971Z,3.300
2022-11-24T06:20:20.016Z,3.300
2022-11-24T06:21:21.675Z,3.300
2022-11-24T06:22:28.936Z,3.300
2022-11-24T06:23:22.406Z,3.250
2022-11-24T06:24:28.019Z,3.200
2022-11-24T06:25:22.094Z,3.200
2022-11-24T06:26:26.180Z,3.200
2022-11-24T06:27:21.936Z,3.200
2022-11-24T06:28:30.294Z,3.200
2022-11-24T06:30:24.113Z,3.100
2022-11-24T06:31:28.543Z,3.200
2022-11-24T06:32:30.553Z,3.200
2022-11-24T06:33:24.187Z,3.200
2022-11-24T06:34:22.336Z,3.200
2022-11-24T06:35:26.253Z,3.200
2022-11-24T06:37:23.310Z,3.200
2022-11-24T06:38:25.730Z,3.200
2022-11-24T06:39:31.386Z,3.200
2022-11-24T06:40:26.341Z,3.200
2022-11-24T06:41:21.808Z,3.200
2022-11-24T06:42:28.968Z,3.200
2022-11-24T06:44:24.426Z,3.200
2022-11-24T06:45:32.653Z,3.200
2022-11-24T06:46:31.425Z,3.300
2022-11-24T06:47:27.415Z,3.300
2022-11-24T06:48:24.425Z,3.300
2022-11-24T06:49:29.939Z,3.300
2022-11-24T06:51:25.065Z,3.300
2022-11-24T06:52:35.941Z,3.300
2022-11-24T06:53:22.187Z,3.300
2022-11-24T06:54:24.281Z,3.300
2022-11-24T06:55:25.885Z,3.400
2022-11-24T06:56:30.490Z,3.400
2022-11-24T06:57:26.747Z,3.400
2022-11-24T06:59:36.974Z,3.400
2022-11-24T07:00:24.231Z,3.400
2022-11-24T07:01:25.841Z,3.400
2022-11-24T07:02:21.162Z,3.400
2022-11-24T07:03:21.113Z,3.400
2022-11-24T07:05:26.628Z,3.500
2022-11-24T07:07:28.592Z,3.500
2022-11-24T07:08:25.567Z,3.600
2022-11-24T07:09:20.766Z,3.600
2022-11-24T07:10:23.947Z,3.600
2022-11-24T07:11:25.898Z,3.700
2022-11-24T07:12:24.898Z,3.700
2022-11-24T07:13:20.679Z,3.700
2022-11-24T07:14:31.589Z,3.700
2022-11-24T07:15:26.037Z,3.700
2022-11-24T07:16:20.174Z,3.700
2022-11-24T07:17:30.301Z,3.800
2022-11-24T07:18:24.963Z,3.800
2022-11-24T07:19:25.256Z,3.800
2022-11-24T07:20:25.238Z,3.800
2022-11-24T07:21:32.748Z,3.800
2022-11-24T07:22:20.774Z,3.800
2022-11-24T07:23:24.359Z,3.850
2022-11-24T07:24:37.928Z,3.900
2022-11-24T07:25:28.507Z,4.000
2022-11-24T07:26:22.492Z,4.000
2022-11-24T07:28:24.490Z,4.000
2022-11-24T07:29:24.219Z,4.000
2022-11-24T07:30:20.589Z,4.000
2022-11-24T07:31:34.172Z,4.050
2022-11-24T07:32:32.670Z,4.100
2022-11-24T07:33:22.273Z,4.100
2022-11-24T07:34:20.053Z,4.100
2022-11-24T07:35:30.389Z,4.200
2022-11-24T07:36:21.739Z,4.200
2022-11-24T07:37:21.032Z,4.300
2022-11-24T07:38:35.068Z,4.300
2022-11-24T07:39:27.504Z,4.300
2022-11-24T07:40:29.202Z,4.300
2022-11-24T07:41:33.020Z,4.400
2022-11-24T07:42:30.819Z,4.400
2022-11-24T07:44:20.277Z,4.400
2022-11-24T07:45:32.194Z,4.400
2022-11-24T07:46:29.060Z,4.400
2022-11-24T07:47:24.502Z,4.500
2022-11-24T07:48:24.892Z,4.500
2022-11-24T07:49:30.016Z,4.500
2022-11-24T07:50:25.416Z,4.600
2022-11-24T07:51:21.428Z,4.600
2022-11-24T07:53:26.311Z,4.600
2022-11-24T07:54:23.632Z,4.600
2022-11-24T07:55:28.435Z,4.600
2022-11-24T07:56:21.999Z,4.600
2022-11-24T07:57:30.227Z,4.700
2022-11-24T07:58:21.785Z,4.700
2022-11-24T07:59:36.807Z,4.700
2022-11-24T08:00:28.781Z,4.700
2022-11-24T08:01:24.245Z,4.750
2022-11-24T08:02:34.580Z,4.800
2022-11-24T08:03:23.819Z,4.800
2022-11-24T08:04:24.122Z,4.800
2022-11-24T08:05:21.076Z,4.800
2022-11-24T08:06:30.061Z,4.800
2022-11-24T08:07:28.591Z,4.800
2022-11-24T08:08:24.516Z,4.800
2022-11-24T08:09:19.943Z,4.800
2022-11-24T08:10:32.207Z,4.800
2022-11-24T08:11:22.403Z,4.900
2022-11-24T08:12:22.128Z,4.900
2022-11-24T08:13:27.156Z,4.900
2022-11-24T08:14:21.516Z,4.900
2022-11-24T08:15:26.707Z,4.900
2022-11-24T08:16:23.081Z,4.900
2022-11-24T08:17:30.247Z,5.000
2022-11-24T08:18:30.285Z,5.000
2022-11-24T08:19:32.348Z,5.000
2022-11-24T08:20:35.746Z,5.000
2022-11-24T08:21:26.599Z,5.000
2022-11-24T08:22:22.865Z,5.000
2022-11-24T08:23:27.845Z,5.000
2022-11-24T08:24:28.641Z,5.000
2022-11-24T08:25:25.619Z,5.000
2022-11-24T08:26:23.874Z,5.000
2022-11-24T08:27:24.082Z,5.000
2022-11-24T08:28:29.706Z,5.000
2022-11-24T08:30:28.498Z,5.000
2022-11-24T08:31:34.835Z,5.000
2022-11-24T08:32:24.556Z,5.000
2022-11-24T08:33:23.181Z,5.000
2022-11-24T08:34:23.980Z,5.000
2022-11-24T08:35:26.729Z,5.000
2022-11-24T08:36:27.850Z,5.000
2022-11-24T08:37:39.135Z,5.100
2022-11-24T08:38:30.174Z,5.000
2022-11-24T08:39:26.053Z,5.050
2022-11-24T08:40:24.230Z,5.100
2022-11-24T08:41:24.667Z,5.100
2022-11-24T08:42:27.567Z,5.100
2022-11-24T08:43:22.698Z,5.100
2022-11-24T08:44:22.987Z,5.100
2022-11-24T08:45:25.865Z,5.100
2022-11-24T08:46:24.478Z,5.100
2022-11-24T08:47:20.471Z,5.100
2022-11-24T08:48:32.785Z,5.100
2022-11-24T08:49:24.096Z,5.100
2022-11-24T08:51:26.592Z,5.200
2022-11-24T08:52:19.686Z,5.200
2022-11-24T08:53:38.867Z,5.200
2022-11-24T08:54:41.948Z,5.200
2022-11-24T08:55:56.913Z,5.300
2022-11-24T08:56:19.964Z,5.300
2022-11-24T08:57:24.833Z,5.300
2022-11-24T08:58:35.906Z,5.300
2022-11-24T08:59:23.853Z,5.400
2022-11-24T09:00:26.174Z,5.400
2022-11-24T09:01:22.525Z,5.400
2022-11-24T09:02:37.363Z,5.400
2022-11-24T09:03:23.103Z,5.500
2022-11-24T09:04:26.007Z,5.500
2022-11-24T09:05:54.461Z,5.600
2022-11-24T09:07:27.296Z,5.600
2022-11-24T09:08:23.339Z,5.600
2022-11-24T09:09:31.772Z,5.600
2022-11-24T09:10:26.804Z,5.700
2022-11-24T09:11:26.685Z,5.700
2022-11-24T09:12:37.077Z,5.700
2022-11-24T09:13:32.281Z,5.800
2022-11-24T09:14:22.731Z,5.800
2022-11-24T09:15:21.477Z,5.800
2022-11-24T09:16:33.529Z,5.800
2022-11-24T09:17:28.686Z,5.800
2022-11-24T09:19:23.273Z,5.800
2022-11-24T09:20:28.687Z,5.800
2022-11-24T09:21:23.471Z,5.900
2022-11-24T09:22:22.294Z,5.900
2022-11-24T09:23:32.010Z,6.000
2022-11-24T09:24:34.346Z,6.000
2022-11-24T09:25:23.772Z,6.000
2022-11-24T09:26:27.863Z,6.000
2022-11-24T09:27:28.512Z,6.000
2022-11-24T09:28:26.590Z,6.000
2022-11-24T09:29:27.059Z,6.100
2022-11-24T09:30:19.287Z,6.100
2022-11-24T09:31:36.448Z,6.100
2022-11-24T09:32:22.098Z,6.100
2022-11-24T09:33:29.696Z,6.200
2022-11-24T09:34:24.292Z,6.200
2022-11-24T09:35:29.968Z,6.300
2022-11-24T09:36:32.108Z,6.300
2022-11-24T09:37:28.207Z,6.300
2022-11-24T09:38:28.779Z,6.300
2022-11-24T09:39:28.065Z,6.400
2022-11-24T09:40:33.943Z,6.400
2022-11-24T09:41:33.506Z,6.400
2022-11-24T09:42:20.226Z,6.400
2022-11-24T09:43:20.251Z,6.500
2022-11-24T09:44:30.303Z,6.500
2022-11-24T09:45:48.928Z,6.500
2022-11-24T09:46:31.116Z,6.500
2022-11-24T09:47:40.737Z,6.500
2022-11-24T09:48:33.130Z,6.600
2022-11-24T09:49:25.314Z,6.700
2022-11-24T09:50:25.407Z,6.700
2022-11-24T09:51:35.198Z,6.700
2022-11-24T09:52:27.540Z,6.700
2022-11-24T09:53:32.265Z,6.700
2022-11-24T09:54:47.335Z,6.700
2022-11-24T09:55:30.652Z,6.750
2022-11-24T09:56:29.817Z,6.800
2022-11-24T09:57:22.871Z,6.800
2022-11-24T09:58:37.915Z,6.800
2022-11-24T09:59:29.207Z,6.800
2022-11-24T10:00:35.640Z,6.900
2022-11-24T10:02:41.363Z,6.900
2022-11-24T10:03:33.711Z,7.000
2022-11-24T10:04:26.660Z,7.000
2022-11-24T10:05:40.680Z,7.000
2022-11-24T10:06:24.498Z,7.100
2022-11-24T10:07:26.559Z,7.100
2022-11-24T10:08:21.197Z,7.100
2022-11-24T10:09:46.415Z,7.100
2022-11-24T10:10:37.144Z,7.100
2022-11-24T10:11:29.385Z,7.200
2022-11-24T10:12:21.635Z,7.300
2022-11-24T10:13:37.675Z,7.300
2022-11-24T10:14:31.837Z,7.300
2022-11-24T10:15:24.448Z,7.300
2022-11-24T10:16:49.452Z,7.300
2022-11-24T10:17:25.618Z,7.400
2022-11-24T10:18:36.605Z,7.300
2022-11-24T10:19:27.706Z,7.400
2022-11-24T10:20:44.187Z,7.400
2022-11-24T10:21:36.406Z,7.400
2022-11-24T10:22:30.620Z,7.400
2022-11-24T10:23:25.779Z,7.400
2022-11-24T10:24:39.774Z,7.500
2022-11-24T10:25:43.895Z,7.500
2022-11-24T10:26:24.632Z,7.500
2022-11-24T10:27:23.126Z,7.500
2022-11-24T10:28:38.926Z,7.500
2022-11-24T10:29:33.453Z,7.600
2022-11-24T10:31:47.646Z,7.600
2022-11-24T10:32:41.703Z,7.700
2022-11-24T10:33:30.840Z,7.700
2022-11-24T10:34:26.507Z,7.700
2022-11-24T10:35:19.897Z,7.700
2022-11-24T10:36:36.840Z,7.700
2022-11-24T10:38:25.063Z,7.800
2022-11-24T10:39:44.666Z,7.800
2022-11-24T10:41:11.196Z,7.800
2022-11-24T10:41:33.691Z,7.800
2022-11-24T10:43:45.728Z,7.900
2022-11-24T10:45:25.381Z,7.900
2022-11-24T10:46:22.064Z,7.900
2022-11-24T10:47:38.262Z,8.000
2022-11-24T10:48:25.578Z,8.000
2022-11-24T10:49:31.635Z,8.000
2022-11-24T10:50:20.913Z,8.000
2022-11-24T10:51:25.990Z,8.000
2022-11-24T10:52:30.991Z,8.000
2022-11-24T10:53:24.877Z,8.000
2022-11-24T10:54:41.577Z,8.000
2022-11-24T10:55:23.672Z,8.000
2022-11-24T10:56:33.844Z,8.000
2022-11-24T10:57:25.879Z,8.100
2022-11-24T10:58:38.087Z,8.100
2022-11-24T10:59:35.228Z,8.100
2022-11-24T11:00:29.516Z,8.100
2022-11-24T11:01:25.112Z,8.100
2022-11-24T11:02:26.153Z,8.100
2022-11-24T11:03:35.960Z,8.100
2022-11-24T11:04:28.893Z,8.150
2022-11-24T11:05:28.628Z,8.200
2022-11-24T11:06:26.884Z,8.200
2022-11-24T11:07:32.150Z,8.200
2022-11-24T11:08:30.156Z,8.200
2022-11-24T11:09:33.367Z,8.200
2022-11-24T11:10:25.055Z,8.200
2022-11-24T11:11:36.116Z,8.200
2022-11-24T11:13:22.657Z,8.300
2022-11-24T11:14:22.865Z,8.300
2022-11-24T11:15:30.793Z,8.300
2022-11-24T11:16:26.709Z,8.400
2022-11-24T11:17:25.102Z,8.400
2022-11-24T11:18:32.592Z,8.400
2022-11-24T11:19:54.278Z,8.400
2022-11-24T11:20:28.804Z,8.400
2022-11-24T11:21:22.446Z,8.400
2022-11-24T11:22:33.851Z,8.400
2022-11-24T11:25:34.878Z,8.500
2022-11-24T11:26:28.481Z,8.500
2022-11-24T11:27:29.122Z,8.500
2022-11-24T11:28:22.704Z,8.500
2022-11-24T11:31:17.362Z,8.600
2022-11-24T11:31:27.407Z,8.600
2022-11-24T11:34:22.140Z,8.600
2022-11-24T11:34:30.154Z,8.600
2022-11-24T11:35:21.148Z,8.700
2022-11-24T11:36:28.132Z,8.700
2022-11-24T11:37:26.663Z,8.700
2022-11-24T11:38:22.952Z,8.700
2022-11-24T11:39:21.074Z,8.700
2022-11-24T11:40:29.829Z,8.700
2022-11-24T11:41:24.441Z,8.700
2022-11-24T11:42:45.291Z,8.700
2022-11-24T11:43:22.807Z,8.700
2022-11-24T11:44:31.631Z,8.800
2022-11-24T11:45:22.771Z,8.800
2022-11-24T11:46:24.957Z,8.800
2022-11-24T11:47:23.224Z,8.800
2022-11-24T11:48:25.722Z,8.800
2022-11-24T11:49:20.691Z,8.800
2022-11-24T11:50:26.972Z,8.800
2022-11-24T11:51:29.204Z,8.900
2022-11-24T11:52:22.538Z,8.900
2022-11-24T11:54:22.935Z,8.900
2022-11-24T11:55:27.377Z,8.900
2022-11-24T11:56:22.631Z,8.900
2022-11-24T11:57:32.501Z,8.950
2022-11-24T11:58:23.433Z,9.000
2022-11-24T11:59:22.406Z,9.000
2022-11-24T12:00:25.268Z,9.000
2022-11-24T12:01:31.854Z,9.000
2022-11-24T12:02:19.914Z,9.000
2022-11-24T12:03:23.655Z,9.000
2022-11-24T12:04:25.070Z,9.000
2022-11-24T12:05:26.380Z,9.000
2022-11-24T12:06:23.568Z,9.000
2022-11-24T12:07:32.161Z,9.000
2022-11-24T12:08:55.847Z,9.000
2022-11-24T12:10:21.933Z,9.100
2022-11-24T12:11:24.220Z,9.100
2022-11-24T12:12:26.442Z,9.100
2022-11-24T12:14:32.669Z,9.100
2022-11-24T12:15:22.528Z,9.100
2022-11-24T12:16:27.483Z,9.100
2022-11-24T12:17:27.174Z,9.200
2022-11-24T12:19:26.802Z,9.200
2022-11-24T12:20:24.981Z,9.200
2022-11-24T12:21:25.985Z,9.200
2022-11-24T12:22:22.302Z,9.200
2022-11-24T12:23:27.146Z,9.200
2022-11-24T12:24:20.338Z,9.200
2022-11-24T12:25:31.568Z,9.300
2022-11-24T12:26:26.912Z,9.300
2022-11-24T12:27:27.974Z,9.300
2022-11-24T12:28:23.520Z,9.300
2022-11-24T12:29:26.760Z,9.300
2022-11-24T12:30:24.978Z,9.300
2022-11-24T12:31:21.555Z,9.400
2022-11-24T12:32:24.254Z,9.400
2022-11-24T12:33:27.687Z,9.400
2022-11-24T12:34:24.191Z,9.400
2022-11-24T12:35:29.822Z,9.500
2022-11-24T12:36:21.260Z,9.500
2022-11-24T12:37:25.004Z,9.500
2022-11-24T12:38:22.268Z,9.500
2022-11-24T12:39:29.692Z,9.500
2022-11-24T12:40:22.148Z,9.500
2022-11-24T12:41:43.702Z,9.500
2022-11-24T12:42:36.036Z,9.500
2022-11-24T12:43:21.536Z,9.600
2022-11-24T12:44:26.760Z,9.600
2022-11-24T12:45:26.680Z,9.600
2022-11-24T12:46:33.608Z,9.600
2022-11-24T12:48:25.785Z,9.600
2022-11-24T12:49:34.498Z,9.600
2022-11-24T12:50:33.311Z,9.650
2022-11-24T12:51:28.186Z,9.700
2022-11-24T12:52:20.573Z,9.700
2022-11-24T12:53:30.361Z,9.700
2022-11-24T12:54:27.990Z,9.800
2022-11-24T12:56:32.776Z,9.800
2022-11-24T12:57:29.487Z,9.800
2022-11-24T12:58:28.549Z,9.900
2022-11-24T12:59:23.482Z,9.900
2022-11-24T13:00:27.598Z,9.900
2022-11-24T13:01:26.606Z,9.900
2022-11-24T13:02:25.439Z,9.900
2022-11-24T13:04:31.543Z,10.000
2022-11-24T13:05:26.069Z,10.000
2022-11-24T13:06:23.969Z,10.000
2022-11-24T13:07:48.416Z,10.000
2022-11-24T13:09:22.955Z,10.100
2022-11-24T13:10:55.195Z,10.100
2022-11-24T13:11:22.468Z,10.100
2022-11-24T13:12:25.821Z,10.100
2022-11-24T13:13:21.685Z,10.100
2022-11-24T13:14:23.847Z,10.200
2022-11-24T13:16:37.204Z,10.200
2022-11-24T13:17:34.360Z,10.200
2022-11-24T13:19:26.267Z,10.300
2022-11-24T13:20:20.488Z,10.300
2022-11-24T13:21:27.443Z,10.300
2022-11-24T13:22:29.839Z,10.300
2022-11-24T13:23:22.927Z,10.400
2022-11-24T13:24:32.968Z,10.400
2022-11-24T13:25:26.230Z,10.400
2022-11-24T13:26:27.180Z,10.400
2022-11-24T13:27:21.843Z,10.500
2022-11-24T13:28:39.419Z,10.500
2022-11-24T13:29:25.340Z,10.500
2022-11-24T13:30:22.418Z,10.500
2022-11-24T13:31:36.386Z,10.500
2022-11-24T13:33:27.137Z,10.500
2022-11-24T13:34:22.267Z,10.500
2022-11-24T13:35:34.595Z,10.500
2022-11-24T13:36:29.854Z,10.550
2022-11-24T13:37:31.609Z,10.600
2022-11-24T13:38:22.042Z,10.600
2022-11-24T13:39:28.810Z,10.600
2022-11-24T13:40:27.020Z,10.600
2022-11-24T13:42:43.886Z,10.600
2022-11-24T13:43:30.281Z,10.650
2022-11-24T13:44:23.851Z,10.700
2022-11-24T13:45:25.332Z,10.700
2022-11-24T13:46:33.936Z,10.700
2022-11-24T13:47:24.698Z,10.700
2022-11-24T13:48:27.986Z,10.700
2022-11-24T13:50:28.977Z,10.800
2022-11-24T13:51:32.764Z,10.800
2022-11-24T13:52:27.178Z,10.800
2022-11-24T13:53:32.508Z,10.800
2022-11-24T13:54:27.962Z,10.800
2022-11-24T13:56:20.179Z,10.800
2022-11-24T13:57:30.333Z,10.800
2022-11-24T13:58:25.585Z,10.800
2022-11-24T13:59:26.334Z,10.800
2022-11-24T14:00:32.843Z,10.800
2022-11-24T14:01:25.976Z,10.800
2022-11-24T14:02:25.755Z,10.800
2022-11-24T14:03:33.572Z,10.800
2022-11-24T14:05:28.114Z,10.800
2022-11-24T14:06:28.055Z,10.900
2022-11-24T14:07:25.993Z,10.900
2022-11-24T14:08:28.346Z,10.900
2022-11-24T14:09:21.787Z,10.900
2022-11-24T14:10:34.052Z,10.900
2022-11-24T14:12:25.673Z,10.900
2022-11-24T14:13:23.411Z,10.900
2022-11-24T14:14:25.432Z,10.900
2022-11-24T14:15:26.899Z,10.900
2022-11-24T14:16:26.010Z,10.900
2022-11-24T14:17:32.643Z,10.900
2022-11-24T14:19:26.689Z,10.900
2022-11-24T14:20:34.899Z,10.900
2022-11-24T14:21:30.654Z,10.900
2022-11-24T14:22:20.999Z,10.900
2022-11-24T14:23:23.764Z,10.900
2022-11-24T14:24:21.785Z,10.900
2022-11-24T14:25:21.740Z,10.900
2022-11-24T14:26:40.607Z,10.900
2022-11-24T14:28:31.847Z,10.900
2022-11-24T14:29:24.663Z,10.900
2022-11-24T14:30:27.961Z,10.900
2022-11-24T14:31:30.842Z,10.900
2022-11-24T14:32:23.534Z,10.900
2022-11-24T14:33:26.756Z,10.900
2022-11-24T14:34:21.380Z,10.900
2022-11-24T14:35:31.014Z,10.900
2022-11-24T14:36:28.789Z,10.900
2022-11-24T14:37:22.422Z,10.900
2022-11-24T14:39:26.766Z,10.900
2022-11-24T14:40:22.499Z,10.900
2022-11-24T14:41:26.104Z,10.900
2022-11-24T14:43:21.153Z,10.900
2022-11-24T14:44:24.397Z,10.900
2022-11-24T14:45:31.225Z,10.900
2022-11-24T14:46:32.592Z,10.900
2022-11-24T14:47:30.966Z,10.900
2022-11-24T14:48:30.002Z,10.900
2022-11-24T14:49:21.353Z,10.900
2022-11-24T14:50:26.368Z,10.900
2022-11-24T14:51:23.900Z,10.900
2022-11-24T14:52:22.725Z,10.900
2022-11-24T14:53:27.632Z,10.900
2022-11-24T14:54:25.112Z,10.900
2022-11-24T14:55:33.870Z,10.900
2022-11-24T14:56:25.541Z,10.900
2022-11-24T14:57:30.893Z,10.900
2022-11-24T14:58:21.232Z,10.900
2022-11-24T14:59:30.092Z,10.900
2022-11-24T15:00:19.969Z,10.900
2022-11-24T15:01:24.983Z,10.900
2022-11-24T15:02:33.737Z,10.900
2022-11-24T15:03:30.936Z,10.900
2022-11-24T15:05:22.232Z,10.800
2022-11-24T15:06:34.695Z,10.800